createdAt,value
2019-02-05T00:01:18.004Z,19.17
2019-02-05T00:03:47.743Z,18.75
2019-02-05T00:06:17.552Z,20.08
2019-02-05T00:08:47.268Z,20.25
2019-02-05T00:11:17.013Z,20.52
2019-02-05T00:13:46.780Z,19.02
2019-02-05T00:16:16.533Z,20.32
2019-02-05T00:18:46.323Z,21.75
2019-02-05T00:21:16.273Z,22.00
2019-02-05T00:23:46.030Z,23.30
2019-02-05T00:26:15.703Z,21.57
2019-02-05T00:28:45.416Z,22.25
2019-02-05T00:31:15.163Z,19.67
2019-02-05T00:33:44.939Z,19.60
2019-02-05T00:36:14.903Z,18.17
2019-02-05T00:38:44.703Z,23.18
2019-02-05T00:41:14.460Z,21.48
2019-02-05T00:43:45.549Z,20.82
2019-02-05T00:46:15.331Z,21.20
2019-02-05T00:48:45.092Z,22.82
2019-02-05T00:51:14.837Z,23.32
2019-02-05T00:53:44.611Z,21.23
2019-02-05T00:56:17.648Z,20.55
2019-02-05T00:58:45.784Z,24.92
2019-02-05T01:01:15.605Z,19.70
2019-02-05T01:03:45.743Z,19.30
2019-02-05T01:06:15.508Z,20.60
2019-02-05T01:08:45.316Z,17.77
2019-02-05T01:11:15.063Z,17.92
2019-02-05T01:13:44.838Z,21.07
2019-02-05T01:16:14.585Z,22.40
2019-02-05T01:18:44.385Z,21.73
2019-02-05T01:21:15.244Z,21.93
2019-02-05T01:23:45.027Z,17.95
2019-02-05T01:26:14.801Z,21.62
2019-02-05T01:28:44.549Z,21.30
2019-02-05T01:31:14.729Z,21.73
2019-02-05T01:33:44.499Z,22.75
2019-02-05T01:36:14.243Z,21.27
2019-02-05T01:38:44.027Z,20.82
2019-02-05T01:41:13.788Z,22.60
2019-02-05T01:43:43.534Z,21.77
2019-02-05T01:46:13.498Z,22.98
2019-02-05T01:48:43.181Z,25.57
2019-02-05T01:51:12.959Z,23.87
2019-02-05T01:53:42.719Z,24.05
2019-02-05T01:56:12.492Z,26.27
2019-02-05T01:58:42.302Z,26.45
2019-02-05T02:01:12.036Z,27.27
2019-02-05T02:03:41.792Z,27.52
2019-02-05T02:06:11.457Z,26.68
2019-02-05T02:08:41.154Z,25.15
2019-02-05T02:11:10.824Z,28.80
2019-02-05T02:13:41.347Z,26.25
2019-02-05T02:16:11.118Z,25.85
2019-02-05T02:18:40.874Z,25.05
2019-02-05T02:21:10.632Z,26.05
2019-02-05T02:23:41.988Z,27.95
2019-02-05T02:26:11.771Z,26.42
2019-02-05T02:28:41.840Z,27.67
2019-02-05T02:31:11.579Z,27.75
2019-02-05T02:33:41.348Z,27.80
2019-02-05T02:36:11.127Z,24.47
2019-02-05T02:38:40.896Z,28.12
2019-02-05T02:41:10.677Z,27.67
2019-02-05T02:43:40.736Z,27.82
2019-02-05T02:46:10.527Z,28.20
2019-02-05T02:48:40.271Z,28.12
2019-02-05T02:51:10.048Z,29.18
2019-02-05T02:53:39.969Z,27.73
2019-02-05T02:56:09.775Z,30.05
2019-02-05T02:58:39.561Z,31.87
2019-02-05T03:01:09.323Z,29.80
2019-02-05T03:03:39.091Z,32.20
2019-02-05T03:06:08.835Z,29.72
2019-02-05T03:08:38.630Z,34.23
2019-02-05T03:11:08.402Z,30.25
2019-02-05T03:13:38.390Z,33.50
2019-02-05T03:16:08.237Z,32.10
2019-02-05T03:18:37.957Z,31.45
2019-02-05T03:21:07.727Z,31.77
2019-02-05T03:23:37.478Z,31.33
2019-02-05T03:26:07.244Z,30.30
2019-02-05T03:28:36.998Z,31.45
2019-02-05T03:31:06.774Z,32.13
2019-02-05T03:33:36.522Z,36.33
2019-02-05T03:36:06.296Z,37.13
2019-02-05T03:38:36.064Z,32.42
2019-02-05T03:41:05.809Z,38.28
2019-02-05T03:43:36.319Z,35.60
2019-02-05T03:46:06.464Z,34.38
2019-02-05T03:48:36.227Z,34.67
2019-02-05T03:51:18.242Z,35.25
2019-02-05T03:54:03.381Z,36.55
2019-02-05T03:56:48.431Z,36.83
2019-02-05T03:59:57.884Z,33.35
2019-02-05T04:02:49.167Z,34.50
2019-02-05T04:05:22.224Z,36.42
2019-02-05T04:08:04.359Z,36.48
2019-02-05T04:10:43.585Z,38.90
2019-02-05T04:13:35.976Z,34.50
2019-02-05T04:16:17.888Z,37.08
2019-02-05T04:19:05.844Z,35.40
2019-02-05T04:21:47.307Z,33.35
2019-02-05T04:24:35.370Z,36.28
2019-02-05T04:27:17.291Z,36.77
2019-02-05T04:30:24.719Z,35.65
2019-02-05T04:33:09.897Z,36.75
2019-02-05T04:35:46.027Z,35.33
2019-02-05T04:38:30.612Z,37.28
2019-02-05T04:41:03.661Z,38.28
2019-02-05T04:43:51.662Z,35.88
2019-02-05T04:46:55.162Z,40.05
2019-02-05T04:49:47.315Z,34.23
2019-02-05T04:52:42.737Z,39.00
2019-02-05T04:55:18.747Z,37.15
2019-02-05T04:58:01.556Z,35.25
2019-02-05T05:00:37.464Z,36.00
2019-02-05T05:03:33.755Z,37.75
2019-02-05T05:06:20.300Z,36.50
2019-02-05T05:08:53.338Z,34.33
2019-02-05T05:11:23.074Z,36.98
2019-02-05T05:13:52.844Z,41.37
2019-02-05T05:16:22.612Z,40.35
2019-02-05T05:18:52.464Z,41.68
2019-02-05T05:21:22.288Z,39.58
2019-02-05T05:23:52.212Z,37.78
2019-02-05T05:26:21.981Z,40.85
2019-02-05T05:28:51.778Z,42.62
2019-02-05T05:31:21.542Z,46.77
2019-02-05T05:33:51.308Z,39.38
2019-02-05T05:36:21.067Z,41.42
2019-02-05T05:38:50.836Z,42.20
2019-02-05T05:41:20.809Z,36.68
2019-02-05T05:43:50.575Z,42.30
2019-02-05T05:46:20.313Z,40.43
2019-02-05T05:48:50.089Z,41.63
2019-02-05T05:51:19.841Z,40.12
2019-02-05T05:53:49.618Z,45.33
2019-02-05T05:56:19.660Z,38.38
2019-02-05T05:58:49.424Z,39.90
2019-02-05T06:01:19.159Z,42.60
2019-02-05T06:03:48.936Z,41.65
2019-02-05T06:06:18.676Z,44.13
2019-02-05T06:08:48.460Z,41.70
2019-02-05T06:11:18.747Z,39.95
2019-02-05T06:13:49.584Z,43.98
2019-02-05T06:16:19.567Z,38.53
2019-02-05T06:18:49.280Z,45.33
2019-02-05T06:21:19.037Z,41.92
2019-02-05T06:23:48.783Z,42.25
2019-02-05T06:26:20.274Z,44.18
2019-02-05T06:28:50.223Z,47.03
2019-02-05T06:31:19.998Z,45.33
2019-02-05T06:33:49.677Z,45.67
2019-02-05T06:36:19.448Z,39.50
2019-02-05T06:38:49.194Z,49.08
2019-02-05T06:41:20.373Z,44.80
2019-02-05T06:43:50.141Z,43.28
2019-02-05T06:46:20.696Z,43.02
2019-02-05T06:48:50.572Z,47.40
2019-02-05T06:51:20.353Z,49.85
2019-02-05T06:53:50.129Z,42.78
2019-02-05T06:56:20.184Z,45.78
2019-02-05T06:58:49.960Z,44.00
2019-02-05T07:01:19.725Z,47.17
2019-02-05T07:03:49.509Z,45.83
2019-02-05T07:06:19.283Z,45.70
2019-02-05T07:08:49.067Z,43.52
2019-02-05T07:11:19.168Z,42.78
2019-02-05T07:13:49.058Z,45.35
2019-02-05T07:16:18.967Z,43.70
2019-02-05T07:18:48.726Z,45.35
2019-02-05T07:21:18.493Z,44.80
2019-02-05T07:23:48.370Z,43.00
2019-02-05T07:26:18.120Z,42.88
2019-02-05T07:28:57.959Z,36.83
2019-02-05T07:31:19.284Z,35.98
2019-02-05T07:33:49.073Z,39.88
2019-02-05T07:36:18.851Z,39.20
2019-02-05T07:38:48.625Z,39.10
2019-02-05T07:41:18.404Z,39.58
2019-02-05T07:43:48.455Z,39.13
2019-02-05T07:46:18.305Z,39.80
2019-02-05T07:48:48.070Z,41.25
2019-02-05T07:51:17.860Z,37.28
2019-02-05T07:53:47.603Z,36.55
2019-02-05T07:56:17.373Z,36.98
2019-02-05T07:58:47.133Z,39.18
2019-02-05T08:01:17.686Z,36.85
2019-02-05T08:03:47.555Z,35.80
2019-02-05T08:06:17.339Z,37.20
2019-02-05T08:08:47.104Z,35.13
2019-02-05T08:11:16.948Z,39.13
2019-02-05T08:13:47.616Z,36.75
2019-02-05T08:16:17.767Z,32.93
2019-02-05T08:18:47.832Z,36.88
2019-02-05T08:21:17.600Z,35.80
2019-02-05T08:23:47.372Z,35.90
2019-02-05T08:26:17.126Z,39.73
2019-02-05T08:28:46.890Z,35.08
2019-02-05T08:31:16.667Z,37.58
2019-02-05T08:33:47.793Z,35.13
2019-02-05T08:36:17.557Z,34.10
2019-02-05T08:38:47.293Z,36.42
2019-02-05T08:41:17.073Z,35.83
2019-02-05T08:43:46.871Z,35.63
2019-02-05T08:46:16.619Z,35.17
2019-02-05T08:48:46.373Z,39.42
2019-02-05T08:51:16.177Z,37.40
2019-02-05T08:53:45.902Z,37.25
2019-02-05T08:56:15.660Z,39.35
2019-02-05T08:58:45.426Z,42.10
2019-02-05T09:01:15.221Z,37.25
2019-02-05T09:03:44.979Z,41.85
2019-02-05T09:06:14.936Z,38.40
2019-02-05T09:08:44.722Z,42.93
2019-02-05T09:11:14.578Z,40.80
2019-02-05T09:13:45.003Z,41.08
2019-02-05T09:16:16.629Z,36.50
2019-02-05T09:18:46.402Z,37.55
2019-02-05T09:21:16.370Z,37.30
2019-02-05T09:23:46.129Z,38.85
2019-02-05T09:26:15.956Z,37.63
2019-02-05T09:28:45.760Z,39.88
2019-02-05T09:31:15.648Z,34.00
2019-02-05T09:33:45.467Z,37.55
2019-02-05T09:36:15.205Z,38.73
2019-02-05T09:38:44.968Z,35.38
2019-02-05T09:41:14.732Z,36.63
2019-02-05T09:43:45.484Z,38.55
2019-02-05T09:46:15.244Z,37.63
2019-02-05T09:48:44.991Z,37.48
2019-02-05T09:51:14.739Z,35.17
2019-02-05T09:53:44.818Z,36.98
2019-02-05T09:56:14.568Z,37.23
2019-02-05T09:58:44.324Z,36.65
2019-02-05T10:01:14.117Z,37.65
2019-02-05T10:03:43.868Z,39.05
2019-02-05T10:06:13.640Z,32.10
2019-02-05T10:08:43.782Z,34.70
2019-02-05T10:11:13.548Z,34.13
2019-02-05T10:13:43.324Z,34.23
2019-02-05T10:16:13.125Z,33.20
2019-02-05T10:18:45.995Z,36.15
2019-02-05T10:21:15.423Z,34.38
2019-02-05T10:23:45.167Z,34.45
2019-02-05T10:26:14.944Z,33.85
2019-02-05T10:28:44.710Z,34.90
2019-02-05T10:31:14.453Z,34.67
2019-02-05T10:33:54.646Z,33.02
2019-02-05T10:36:15.590Z,35.17
2019-02-05T10:38:45.369Z,34.67
2019-02-05T10:41:15.130Z,35.58
2019-02-05T10:43:44.900Z,36.00
2019-02-05T10:46:14.644Z,35.80
2019-02-05T10:48:44.412Z,32.73
2019-02-05T10:51:14.204Z,33.20
2019-02-05T10:53:43.948Z,35.15
2019-02-05T10:56:13.931Z,31.77
2019-02-05T10:58:43.769Z,32.53
2019-02-05T11:01:13.664Z,31.10
2019-02-05T11:03:43.413Z,29.77
2019-02-05T11:06:13.238Z,31.73
2019-02-05T11:08:43.011Z,30.68
2019-02-05T11:11:13.057Z,30.55
2019-02-05T11:13:42.825Z,31.00
2019-02-05T11:16:12.595Z,28.75
2019-02-05T11:18:42.331Z,29.72
2019-02-05T11:21:12.101Z,30.82
2019-02-05T11:23:41.884Z,28.92
2019-02-05T11:26:11.659Z,30.45
2019-02-05T11:28:41.473Z,28.70
2019-02-05T11:31:11.219Z,29.52
2019-02-05T11:33:40.991Z,33.05
2019-02-05T11:36:10.909Z,28.35
2019-02-05T11:38:40.680Z,30.30
2019-02-05T11:41:10.457Z,30.97
2019-02-05T11:43:41.824Z,28.77
2019-02-05T11:46:11.669Z,29.67
2019-02-05T11:48:41.430Z,28.20
2019-02-05T11:51:11.200Z,32.50
2019-02-05T11:53:41.111Z,31.75
2019-02-05T11:56:10.893Z,32.83
2019-02-05T11:58:41.038Z,33.55
2019-02-05T12:01:12.266Z,29.23
2019-02-05T12:03:41.985Z,29.95
2019-02-05T12:06:11.855Z,30.05
2019-02-05T12:08:41.599Z,31.05
2019-02-05T12:11:11.355Z,32.53
2019-02-05T12:13:41.105Z,28.05
2019-02-05T12:16:10.981Z,28.00
2019-02-05T12:18:40.720Z,29.23
2019-02-05T12:21:10.482Z,29.65
2019-02-05T12:23:40.260Z,31.40
2019-02-05T12:26:10.020Z,29.12
2019-02-05T12:28:39.753Z,32.00
2019-02-05T12:31:09.818Z,29.70
2019-02-05T12:33:39.570Z,31.23
2019-02-05T12:36:09.337Z,31.60
2019-02-05T12:38:39.110Z,29.27
2019-02-05T12:41:08.874Z,32.08
2019-02-05T12:43:38.611Z,29.23
2019-02-05T12:46:08.695Z,28.77
2019-02-05T12:48:38.439Z,31.30
2019-02-05T12:51:08.218Z,30.55
2019-02-05T12:53:38.930Z,31.52
2019-02-05T12:56:08.679Z,33.02
2019-02-05T12:58:38.440Z,31.07
2019-02-05T13:01:08.423Z,33.55
2019-02-05T13:03:38.185Z,31.52
2019-02-05T13:06:07.948Z,30.27
2019-02-05T13:08:37.631Z,30.65
2019-02-05T13:11:07.384Z,31.73
2019-02-05T13:13:37.159Z,29.60
2019-02-05T13:16:07.126Z,27.87
2019-02-05T13:18:36.874Z,27.62
2019-02-05T13:21:19.562Z,27.75
2019-02-05T13:23:49.323Z,27.67
2019-02-05T13:26:19.191Z,28.55
2019-02-05T13:28:48.954Z,28.12
2019-02-05T13:31:18.700Z,32.15
2019-02-05T13:33:48.408Z,30.23
2019-02-05T13:36:18.157Z,28.77
2019-02-05T13:38:47.929Z,29.75
2019-02-05T13:41:17.873Z,27.75
2019-02-05T13:43:47.648Z,28.40
2019-02-05T13:46:17.603Z,31.97
2019-02-05T13:48:47.447Z,30.00
2019-02-05T13:51:17.334Z,30.57
2019-02-05T13:53:47.190Z,28.45
2019-02-05T13:56:17.151Z,28.98
2019-02-05T13:58:52.972Z,30.97
2019-02-05T14:01:22.748Z,29.37
2019-02-05T14:03:52.491Z,30.90
2019-02-05T14:06:22.255Z,29.85
2019-02-05T14:08:52.325Z,29.70
2019-02-05T14:11:22.113Z,30.85
2019-02-05T14:13:51.863Z,30.43
2019-02-05T14:16:21.624Z,30.65
2019-02-05T14:18:55.189Z,29.12
2019-02-05T14:21:22.823Z,32.55
2019-02-05T14:23:52.844Z,30.77
2019-02-05T14:26:22.703Z,31.87
2019-02-05T14:28:52.409Z,30.48
2019-02-05T14:31:31.161Z,30.92
2019-02-05T14:33:53.596Z,31.35
2019-02-05T14:36:23.365Z,35.35
2019-02-05T14:38:53.457Z,34.58
2019-02-05T14:41:23.220Z,31.20
2019-02-05T14:43:52.996Z,29.82
2019-02-05T14:46:22.764Z,32.73
2019-02-05T14:48:52.520Z,34.03
2019-02-05T14:51:22.216Z,33.78
2019-02-05T14:53:51.974Z,34.27
2019-02-05T14:56:21.733Z,35.00
2019-02-05T14:58:51.474Z,32.63
2019-02-05T15:01:21.150Z,33.55
2019-02-05T15:03:50.957Z,35.43
2019-02-05T15:06:22.131Z,34.85
2019-02-05T15:08:51.970Z,34.13
2019-02-05T15:11:21.736Z,33.20
2019-02-05T15:13:51.500Z,37.55
2019-02-05T15:16:21.247Z,34.73
2019-02-05T15:18:50.998Z,35.20
2019-02-05T15:21:20.984Z,35.20
2019-02-05T15:23:50.718Z,35.92
2019-02-05T15:26:20.659Z,34.43
2019-02-05T15:28:50.466Z,39.03
2019-02-05T15:31:20.220Z,36.98
2019-02-05T15:33:51.523Z,34.55
2019-02-05T15:36:23.167Z,36.15
2019-02-05T15:38:52.913Z,37.28
2019-02-05T15:41:22.672Z,35.78
2019-02-05T15:43:52.422Z,34.67
2019-02-05T15:46:22.191Z,36.53
2019-02-05T15:48:52.242Z,35.68
2019-02-05T15:51:23.016Z,36.60
2019-02-05T15:53:52.676Z,37.50
2019-02-05T15:56:22.438Z,39.53
2019-02-05T15:58:52.195Z,39.42
2019-02-05T16:01:21.971Z,35.78
2019-02-05T16:03:51.721Z,37.78
2019-02-05T16:06:21.405Z,37.65
2019-02-05T16:08:51.184Z,36.48
2019-02-05T16:11:20.938Z,40.38
2019-02-05T16:13:50.700Z,39.35
2019-02-05T16:16:20.449Z,41.60
2019-02-05T16:18:53.152Z,44.40
2019-02-05T16:21:21.605Z,47.38
2019-02-05T16:23:51.381Z,43.38
2019-02-05T16:26:21.136Z,42.35
2019-02-05T16:28:51.885Z,47.70
2019-02-05T16:31:21.950Z,39.65
2019-02-05T16:33:51.709Z,43.73
2019-02-05T16:36:21.462Z,44.55
2019-02-05T16:38:51.236Z,38.15
2019-02-05T16:41:20.971Z,39.78
2019-02-05T16:43:50.790Z,39.85
2019-02-05T16:46:20.851Z,42.05
2019-02-05T16:48:50.620Z,42.20
2019-02-05T16:51:20.359Z,43.80
2019-02-05T16:53:50.127Z,41.30
2019-02-05T16:56:19.972Z,40.73
2019-02-05T16:58:49.738Z,44.10
2019-02-05T17:01:19.690Z,36.85
2019-02-05T17:03:49.462Z,43.45
2019-02-05T17:06:19.210Z,39.38
2019-02-05T17:08:48.975Z,43.63
2019-02-05T17:11:18.660Z,49.50
2019-02-05T17:13:48.429Z,54.88
2019-02-05T17:16:18.376Z,53.08
2019-02-05T17:18:48.273Z,46.85
2019-02-05T17:21:18.068Z,44.45
2019-02-05T17:23:47.898Z,48.85
2019-02-05T17:26:18.008Z,39.98
2019-02-05T17:28:47.784Z,50.70
2019-02-05T17:31:17.555Z,54.60
2019-02-05T17:33:47.317Z,58.42
2019-02-05T17:36:17.093Z,38.55
2019-02-05T17:38:46.844Z,44.55
2019-02-05T17:41:16.623Z,45.95
2019-02-05T17:43:46.851Z,45.20
2019-02-05T17:46:16.653Z,44.30
2019-02-05T17:48:46.448Z,43.33
2019-02-05T17:51:16.274Z,38.85
2019-02-05T17:53:46.025Z,44.63
2019-02-05T17:56:17.106Z,39.05
2019-02-05T17:58:47.238Z,44.27
2019-02-05T18:01:17.062Z,43.78
2019-02-05T18:03:46.826Z,43.33
2019-02-05T18:06:16.586Z,43.15
2019-02-05T18:08:46.351Z,43.87
2019-02-05T18:11:16.185Z,47.67
2019-02-05T18:13:46.028Z,42.03
2019-02-05T18:16:15.848Z,42.50
2019-02-05T18:18:45.618Z,44.33
2019-02-05T18:21:15.429Z,45.92
2019-02-05T18:23:45.168Z,49.10
2019-02-05T18:26:14.954Z,47.08
2019-02-05T18:28:44.707Z,40.35
2019-02-05T18:31:14.508Z,47.83
2019-02-05T18:33:44.270Z,46.37
2019-02-05T18:36:14.044Z,53.45
2019-02-05T18:38:43.817Z,66.07
2019-02-05T18:41:13.831Z,55.17
2019-02-05T18:43:43.614Z,69.90
2019-02-05T18:46:13.399Z,62.38
2019-02-05T18:48:43.148Z,57.40
2019-02-05T18:51:12.940Z,48.25
2019-02-05T18:53:42.744Z,50.75
2019-02-05T18:56:12.948Z,51.92
2019-02-05T18:58:42.700Z,53.05
2019-02-05T19:01:12.524Z,51.73
2019-02-05T19:03:42.849Z,58.42
2019-02-05T19:06:12.640Z,52.67
2019-02-05T19:08:42.399Z,53.98
2019-02-05T19:11:12.480Z,66.37
2019-02-05T19:13:42.239Z,60.45
2019-02-05T19:16:12.000Z,66.40
2019-02-05T19:18:41.916Z,66.35
2019-02-05T19:21:11.701Z,63.92
2019-02-05T19:23:41.543Z,63.20
2019-02-05T19:26:12.939Z,54.80
2019-02-05T19:28:42.680Z,55.50
2019-02-05T19:31:14.163Z,53.95
2019-02-05T19:33:43.908Z,58.35
2019-02-05T19:36:13.698Z,56.08
2019-02-05T19:38:43.735Z,59.27
2019-02-05T19:41:13.520Z,61.15
2019-02-05T19:43:43.297Z,57.10
2019-02-05T19:46:20.469Z,60.03
2019-02-05T19:48:55.376Z,55.25
2019-02-05T19:51:25.205Z,52.80
2019-02-05T19:53:56.031Z,53.65
2019-02-05T19:56:25.793Z,59.30
2019-02-05T19:58:55.549Z,50.60
2019-02-05T20:01:25.318Z,51.02
2019-02-05T20:03:59.167Z,46.73
2019-02-05T20:06:29.072Z,50.45
2019-02-05T20:08:59.388Z,53.90
2019-02-05T20:11:29.391Z,47.08
2019-02-05T20:13:59.524Z,50.25
2019-02-05T20:16:29.414Z,51.58
2019-02-05T20:18:59.300Z,51.63
2019-02-05T20:21:31.932Z,55.58
2019-02-05T20:24:01.098Z,50.40
2019-02-05T20:26:31.131Z,49.18
2019-02-05T20:29:01.247Z,50.48
2019-02-05T20:31:31.207Z,49.13
2019-02-05T20:34:01.247Z,54.33
2019-02-05T20:36:32.216Z,57.08
2019-02-05T20:39:03.793Z,53.58
2019-02-05T20:41:34.824Z,52.08
2019-02-05T20:44:04.732Z,45.03
2019-02-05T20:46:34.619Z,54.63
2019-02-05T20:49:04.566Z,48.02
2019-02-05T20:51:34.577Z,52.65
2019-02-05T20:54:04.940Z,54.70
2019-02-05T20:56:34.743Z,49.83
2019-02-05T20:59:05.030Z,49.88
2019-02-05T21:01:34.929Z,55.90
2019-02-05T21:04:04.929Z,54.38
2019-02-05T21:06:34.784Z,51.05
2019-02-05T21:09:07.170Z,52.62
2019-02-05T21:11:36.917Z,52.95
2019-02-05T21:14:06.672Z,52.45
2019-02-05T21:16:36.413Z,50.88
2019-02-05T21:19:06.181Z,56.08
2019-02-05T21:21:35.984Z,52.10
2019-02-05T21:24:05.885Z,56.25
2019-02-05T21:26:35.619Z,60.17
2019-02-05T21:29:05.395Z,57.03
2019-02-05T21:31:35.161Z,59.63
2019-02-05T21:34:15.179Z,62.50
2019-02-05T21:36:36.354Z,61.42
2019-02-05T21:39:08.355Z,54.20
2019-02-05T21:41:38.265Z,53.95
2019-02-05T21:44:08.023Z,58.68
2019-02-05T21:46:37.830Z,60.55
2019-02-05T21:49:07.621Z,63.15
2019-02-05T21:51:42.001Z,57.15
2019-02-05T21:54:09.795Z,57.05
2019-02-05T21:56:40.655Z,55.83
2019-02-05T21:59:10.415Z,54.73
2019-02-05T22:01:40.292Z,60.10
2019-02-05T22:04:10.329Z,57.30
2019-02-05T22:06:40.392Z,57.53
2019-02-05T22:09:10.980Z,56.02
2019-02-05T22:11:42.053Z,53.23
2019-02-05T22:14:12.174Z,56.68
2019-02-05T22:16:41.920Z,54.30
2019-02-05T22:19:13.076Z,62.17
2019-02-05T22:21:42.860Z,59.67
2019-02-05T22:24:12.602Z,62.15
2019-02-05T22:26:42.388Z,59.60
2019-02-05T22:29:12.198Z,55.05
2019-02-05T22:31:42.022Z,58.02
2019-02-05T22:34:12.030Z,56.98
2019-02-05T22:36:41.792Z,57.25
2019-02-05T22:39:11.650Z,57.73
2019-02-05T22:41:41.419Z,53.55
2019-02-05T22:44:11.292Z,55.30
2019-02-05T22:46:41.236Z,53.85
2019-02-05T22:49:10.999Z,58.00
2019-02-05T22:51:40.820Z,56.70
2019-02-05T22:54:10.614Z,59.30
2019-02-05T22:56:40.456Z,58.90
2019-02-05T22:59:10.536Z,56.92
2019-02-05T23:01:43.184Z,58.20
2019-02-05T23:04:13.808Z,62.70
2019-02-05T23:06:47.152Z,53.13
2019-02-05T23:09:23.158Z,54.40
2019-02-05T23:12:15.012Z,60.08
2019-02-05T23:14:48.646Z,54.50
2019-02-05T23:17:18.438Z,56.73
2019-02-05T23:19:48.192Z,52.50
2019-02-05T23:22:17.947Z,60.48
2019-02-05T23:24:47.711Z,54.88
2019-02-05T23:27:17.448Z,63.02
2019-02-05T23:29:47.345Z,63.08
2019-02-05T23:32:17.102Z,64.30
2019-02-05T23:34:46.859Z,57.08
2019-02-05T23:37:16.611Z,58.15
2019-02-05T23:39:46.410Z,57.27
2019-02-05T23:42:16.277Z,61.23
2019-02-05T23:44:46.038Z,56.60
2019-02-05T23:47:15.819Z,62.80
2019-02-05T23:49:45.610Z,53.87
2019-02-05T23:52:15.380Z,58.60
2019-02-05T23:54:45.125Z,56.68
2019-02-05T23:57:14.899Z,54.42
2019-02-05T23:59:44.657Z,48.28
